createdAt,value
2022-08-05T00:00:19.522Z,24.44
2022-08-05T00:02:50.496Z,24.37
2022-08-05T00:06:01.506Z,24.35
2022-08-05T00:08:33.006Z,24.59
2022-08-05T00:10:57.299Z,24.41
2022-08-05T00:13:38.495Z,24.53
2022-08-05T00:16:08.841Z,24.50
2022-08-05T00:18:36.544Z,24.65
2022-08-05T00:21:06.814Z,24.41
2022-08-05T00:23:46.452Z,24.36
2022-08-05T00:26:22.005Z,24.52
2022-08-05T00:28:49.626Z,24.55
2022-08-05T00:31:16.336Z,24.50
2022-08-05T00:34:53.692Z,24.54
2022-08-05T00:37:11.981Z,24.32
2022-08-05T00:39:37.006Z,24.39
2022-08-05T00:42:08.662Z,24.42
2022-08-05T00:44:35.273Z,24.50
2022-08-05T00:47:05.693Z,24.39
2022-08-05T00:49:44.457Z,24.13
2022-08-05T00:52:17.940Z,24.33
2022-08-05T00:54:44.518Z,24.07
2022-08-05T00:57:11.165Z,24.17
2022-08-05T00:59:44.245Z,24.11
2022-08-05T01:02:11.425Z,24.32
2022-08-05T01:04:38.048Z,24.31
2022-08-05T01:07:08.815Z,24.33
2022-08-05T01:09:41.938Z,24.23
2022-08-05T01:12:18.686Z,24.28
2022-08-05T01:14:55.919Z,24.22
2022-08-05T01:17:27.416Z,24.13
2022-08-05T01:20:11.457Z,23.89
2022-08-05T01:22:57.469Z,24.22
2022-08-05T01:25:53.125Z,24.01
2022-08-05T01:28:44.223Z,23.69
2022-08-05T01:31:42.672Z,23.88
2022-08-05T01:34:27.990Z,23.95
2022-08-05T01:37:01.116Z,24.02
2022-08-05T01:39:46.441Z,24.10
2022-08-05T01:42:16.437Z,23.95
2022-08-05T01:44:45.720Z,24.12
2022-08-05T01:47:23.014Z,24.03
2022-08-05T01:50:01.704Z,23.96
2022-08-05T01:52:32.389Z,24.02
2022-08-05T01:55:04.419Z,24.08
2022-08-05T01:58:13.193Z,23.87
2022-08-05T02:03:34.068Z,23.76
2022-08-05T02:06:03.621Z,23.73
2022-08-05T02:08:57.847Z,23.66
2022-08-05T02:11:33.416Z,23.85
2022-08-05T02:14:13.246Z,23.89
2022-08-05T02:16:46.584Z,23.78
2022-08-05T02:19:25.204Z,23.65
2022-08-05T02:22:05.661Z,23.76
2022-08-05T02:24:40.839Z,23.68
2022-08-05T02:27:10.650Z,23.80
2022-08-05T02:29:58.638Z,23.57
2022-08-05T02:32:30.879Z,23.71
2022-08-05T02:35:13.543Z,23.34
2022-08-05T02:37:46.489Z,22.86
2022-08-05T02:40:22.134Z,23.35
2022-08-05T02:42:54.030Z,23.33
2022-08-05T02:45:24.090Z,23.19
2022-08-05T02:48:07.531Z,23.46
2022-08-05T02:50:44.078Z,23.54
2022-08-05T02:53:16.035Z,23.55
2022-08-05T02:55:54.834Z,23.42
2022-08-05T02:58:27.352Z,23.06
2022-08-05T03:00:56.716Z,23.29
2022-08-05T03:03:24.058Z,23.32
2022-08-05T03:06:53.577Z,23.32
2022-08-05T03:08:42.360Z,23.32
2022-08-05T03:11:57.318Z,22.62
2022-08-05T03:14:13.506Z,23.18
2022-08-05T03:16:40.338Z,23.09
2022-08-05T03:19:16.959Z,22.98
2022-08-05T03:21:48.628Z,23.09
2022-08-05T03:24:17.524Z,23.18
2022-08-05T03:26:50.286Z,22.94
2022-08-05T03:29:18.186Z,22.85
2022-08-05T03:31:55.972Z,23.00
2022-08-05T03:34:24.404Z,23.13
2022-08-05T03:36:51.160Z,22.98
2022-08-05T03:39:20.053Z,23.09
2022-08-05T03:41:53.521Z,22.87
2022-08-05T03:44:23.680Z,22.90
2022-08-05T03:46:52.486Z,22.89
2022-08-05T03:49:19.096Z,22.86
2022-08-05T03:52:48.516Z,22.98
2022-08-05T03:55:52.812Z,22.87
2022-08-05T03:57:45.787Z,22.75
2022-08-05T04:00:15.524Z,22.81
2022-08-05T04:02:58.666Z,22.59
2022-08-05T04:05:36.165Z,22.87
2022-08-05T04:08:29.928Z,22.86
2022-08-05T04:10:55.564Z,22.77
2022-08-05T04:13:22.747Z,22.63
2022-08-05T04:16:03.046Z,22.72
2022-08-05T04:18:32.309Z,22.59
2022-08-05T04:21:01.923Z,22.47
2022-08-05T04:24:05.660Z,22.60
2022-08-05T04:26:18.392Z,22.73
2022-08-05T04:28:51.177Z,22.75
2022-08-05T04:31:19.138Z,22.82
2022-08-05T04:34:18.783Z,22.71
2022-08-05T04:36:45.961Z,22.59
2022-08-05T04:39:16.920Z,22.66
2022-08-05T04:41:45.648Z,22.57
2022-08-05T04:44:12.523Z,22.65
2022-08-05T04:46:39.087Z,22.53
2022-08-05T04:49:12.214Z,22.52
2022-08-05T04:51:42.880Z,22.65
2022-08-05T04:54:10.330Z,-140.71
2022-08-05T04:56:38.620Z,-140.71
2022-08-05T04:59:21.650Z,-140.71
2022-08-05T05:02:35.320Z,-140.71
2022-08-05T05:04:47.568Z,-140.71
2022-08-05T05:07:17.080Z,-140.71
2022-08-05T05:09:44.671Z,-140.71
2022-08-05T05:12:11.620Z,-140.71
2022-08-05T05:14:38.534Z,-140.71
2022-08-05T05:17:19.886Z,-140.71
2022-08-05T05:19:50.307Z,-140.71
2022-08-05T05:22:23.870Z,-140.71
2022-08-05T05:24:57.548Z,-140.71
2022-08-05T05:27:45.422Z,-140.71
2022-08-05T05:30:29.411Z,-140.71
2022-08-05T05:33:08.771Z,-140.71
2022-08-05T05:35:44.082Z,23.14
2022-08-05T05:38:13.769Z,22.94
2022-08-05T05:40:50.002Z,23.02
2022-08-05T05:43:22.270Z,22.93
2022-08-05T05:46:10.783Z,23.08
2022-08-05T05:48:41.860Z,23.25
2022-08-05T05:51:15.420Z,23.22
2022-08-05T05:53:54.569Z,23.33
2022-08-05T05:56:32.271Z,23.26
2022-08-05T05:59:03.567Z,23.27
2022-08-05T06:01:37.396Z,23.31
2022-08-05T06:04:12.029Z,23.34
2022-08-05T06:06:42.814Z,23.40
2022-08-05T06:09:16.982Z,23.39
2022-08-05T06:11:59.986Z,23.44
2022-08-05T06:14:30.924Z,23.54
2022-08-05T06:16:58.533Z,23.60
2022-08-05T06:19:26.071Z,23.71
2022-08-05T06:22:02.185Z,23.77
2022-08-05T06:24:28.721Z,23.78
2022-08-05T06:26:55.673Z,23.79
2022-08-05T06:29:45.473Z,23.91
2022-08-05T06:32:26.090Z,23.98
2022-08-05T06:34:57.392Z,24.12
2022-08-05T06:37:56.724Z,24.23
2022-08-05T06:40:20.934Z,24.31
2022-08-05T06:42:52.294Z,24.30
2022-08-05T06:45:44.000Z,24.25
2022-08-05T06:48:35.996Z,24.27
2022-08-05T06:50:54.305Z,24.30
2022-08-05T06:53:27.807Z,24.31
2022-08-05T06:55:55.753Z,24.40
2022-08-05T06:58:29.929Z,-140.71
2022-08-05T07:01:03.827Z,-140.71
2022-08-05T07:03:32.667Z,24.58
2022-08-05T07:06:05.831Z,24.87
2022-08-05T07:08:47.181Z,24.93
2022-08-05T07:11:15.912Z,25.07
2022-08-05T07:14:02.205Z,25.12
2022-08-05T07:17:59.467Z,25.27
2022-08-05T07:22:28.771Z,-140.71
2022-08-05T07:25:23.803Z,-140.71
2022-08-05T07:27:58.502Z,25.61
2022-08-05T07:30:34.700Z,25.72
2022-08-05T07:33:09.276Z,25.73
2022-08-05T07:36:05.227Z,25.73
2022-08-05T07:38:33.847Z,25.77
2022-08-05T07:42:08.805Z,25.83
2022-08-05T07:43:58.468Z,25.92
2022-08-05T07:46:30.926Z,25.56
2022-08-05T07:49:02.099Z,26.17
2022-08-05T07:51:40.716Z,26.25
2022-08-05T07:54:15.160Z,26.32
2022-08-05T07:57:02.321Z,26.43
2022-08-05T07:59:38.177Z,-140.71
2022-08-05T08:02:15.475Z,-140.71
2022-08-05T08:04:44.933Z,-140.71
2022-08-05T08:07:11.811Z,26.43
2022-08-05T08:09:38.630Z,26.85
2022-08-05T08:12:14.318Z,26.85
2022-08-05T08:14:46.866Z,27.01
2022-08-05T08:17:21.349Z,27.09
2022-08-05T08:20:10.136Z,27.18
2022-08-05T08:22:35.968Z,27.24
2022-08-05T08:25:03.938Z,27.40
2022-08-05T08:27:47.364Z,27.48
2022-08-05T08:30:19.025Z,27.59
2022-08-05T08:32:56.889Z,27.92
2022-08-05T08:35:26.596Z,27.92
2022-08-05T08:37:53.531Z,-140.71
2022-08-05T08:40:23.854Z,-140.71
2022-08-05T08:42:53.051Z,27.92
2022-08-05T08:45:27.033Z,28.14
2022-08-05T08:48:12.654Z,28.31
2022-08-05T08:51:03.238Z,28.35
2022-08-05T08:53:37.089Z,28.43
2022-08-05T08:56:06.249Z,28.61
2022-08-05T08:58:37.188Z,28.68
2022-08-05T09:01:16.380Z,28.80
2022-08-05T09:03:46.282Z,28.93
2022-08-05T09:06:17.216Z,29.03
2022-08-05T09:08:46.699Z,29.08
2022-08-05T09:11:15.030Z,29.22
2022-08-05T09:14:09.535Z,29.30
2022-08-05T09:16:30.789Z,29.40
2022-08-05T09:18:59.339Z,29.62
2022-08-05T09:22:17.662Z,29.93
2022-08-05T09:24:15.399Z,29.73
2022-08-05T09:26:46.733Z,29.92
2022-08-05T09:29:17.563Z,30.05
2022-08-05T09:32:41.920Z,30.12
2022-08-05T09:34:56.333Z,30.18
2022-08-05T09:38:12.892Z,-140.71
2022-08-05T09:40:32.455Z,30.27
2022-08-05T09:43:00.206Z,30.13
2022-08-05T09:46:07.169Z,30.30
2022-08-05T09:48:34.567Z,30.27
2022-08-05T09:51:15.279Z,30.53
2022-08-05T09:53:58.952Z,30.39
2022-08-05T09:56:28.350Z,30.76
2022-08-05T09:59:06.667Z,30.75
2022-08-05T10:01:36.426Z,30.68
2022-08-05T10:04:11.046Z,30.68
2022-08-05T10:06:54.809Z,30.68
2022-08-05T10:09:28.414Z,30.94
2022-08-05T10:12:30.220Z,31.01
2022-08-05T10:15:17.151Z,31.23
2022-08-05T10:18:17.359Z,31.08
2022-08-05T10:20:56.901Z,31.06
2022-08-05T10:23:55.289Z,31.29
2022-08-05T10:26:16.061Z,31.62
2022-08-05T10:28:45.306Z,31.49
2022-08-05T10:32:47.846Z,31.50
2022-08-05T10:34:07.092Z,31.42
2022-08-05T10:36:40.584Z,31.49
2022-08-05T10:39:25.238Z,31.71
2022-08-05T10:42:18.662Z,32.02
2022-08-05T10:44:50.926Z,31.88
2022-08-05T10:47:26.180Z,32.17
2022-08-05T10:50:33.192Z,31.92
2022-08-05T10:53:02.165Z,31.72
2022-08-05T10:55:30.551Z,32.01
2022-08-05T10:58:11.452Z,32.01
2022-08-05T11:00:42.201Z,32.35
2022-08-05T11:03:23.252Z,32.44
2022-08-05T11:06:14.599Z,32.42
2022-08-05T11:09:32.230Z,32.53
2022-08-05T11:12:26.588Z,32.45
2022-08-05T11:15:20.290Z,32.61
2022-08-05T11:18:25.604Z,32.56
2022-08-05T11:20:52.796Z,32.67
2022-08-05T11:24:02.894Z,32.73
2022-08-05T11:26:33.503Z,32.96
2022-08-05T11:29:13.274Z,33.10
2022-08-05T11:31:57.571Z,32.91
2022-08-05T11:34:37.926Z,32.89
2022-08-05T11:37:06.316Z,32.75
2022-08-05T11:39:55.506Z,32.87
2022-08-05T11:42:28.346Z,32.88
2022-08-05T11:45:03.584Z,32.92
2022-08-05T11:47:48.581Z,33.15
2022-08-05T11:50:17.947Z,33.51
2022-08-05T11:52:48.413Z,33.63
2022-08-05T11:55:15.605Z,33.48
2022-08-05T11:58:11.053Z,33.87
2022-08-05T12:00:38.331Z,33.97
2022-08-05T12:03:23.808Z,33.84
2022-08-05T12:06:06.373Z,33.79
2022-08-05T12:08:50.945Z,33.54
2022-08-05T12:11:22.956Z,34.00
2022-08-05T12:14:05.696Z,34.00
2022-08-05T12:16:38.433Z,33.97
2022-08-05T12:19:08.466Z,34.25
2022-08-05T12:21:41.900Z,34.39
2022-08-05T12:24:17.367Z,34.40
2022-08-05T12:26:48.076Z,34.22
2022-08-05T12:29:17.774Z,34.70
2022-08-05T12:31:54.501Z,34.59
2022-08-05T12:34:25.738Z,34.31
2022-08-05T12:36:53.729Z,34.54
2022-08-05T12:39:21.302Z,34.21
2022-08-05T12:41:48.711Z,34.71
2022-08-05T12:44:32.564Z,34.54
2022-08-05T12:47:01.869Z,34.48
2022-08-05T12:50:04.430Z,34.57
2022-08-05T12:52:33.859Z,34.81
2022-08-05T12:55:18.107Z,34.82
2022-08-05T12:58:49.557Z,35.11
2022-08-05T13:02:00.354Z,35.01
2022-08-05T13:03:31.967Z,34.94
2022-08-05T13:05:59.199Z,35.26
2022-08-05T13:08:30.363Z,35.13
2022-08-05T13:11:04.319Z,35.17
2022-08-05T13:14:06.643Z,35.00
2022-08-05T13:16:24.972Z,34.82
2022-08-05T13:18:58.957Z,35.42
2022-08-05T13:21:28.443Z,35.63
2022-08-05T13:24:08.825Z,35.51
2022-08-05T13:26:36.075Z,35.37
2022-08-05T13:29:05.147Z,35.20
2022-08-05T13:31:33.981Z,35.49
2022-08-05T13:34:22.600Z,35.26
2022-08-05T13:36:55.526Z,35.23
2022-08-05T13:40:13.891Z,35.48
2022-08-05T13:42:14.089Z,35.61
2022-08-05T13:44:46.175Z,35.79
2022-08-05T13:47:34.799Z,35.72
2022-08-05T13:50:08.464Z,35.29
2022-08-05T13:52:36.355Z,35.24
2022-08-05T13:55:07.683Z,35.55
2022-08-05T13:57:51.051Z,35.27
2022-08-05T14:00:27.028Z,35.70
2022-08-05T14:02:56.004Z,35.64
2022-08-05T14:05:48.032Z,35.39
2022-08-05T14:08:19.889Z,35.71
2022-08-05T14:10:48.798Z,35.54
2022-08-05T14:13:15.851Z,35.54
2022-08-05T14:16:05.914Z,35.56
2022-08-05T14:18:29.555Z,35.69
2022-08-05T14:20:56.077Z,35.93
2022-08-05T14:23:25.819Z,35.91
2022-08-05T14:25:58.074Z,35.65
2022-08-05T14:28:27.688Z,35.59
2022-08-05T14:30:55.720Z,35.57
2022-08-05T14:33:24.060Z,35.44
2022-08-05T14:35:53.960Z,35.51
2022-08-05T14:38:32.093Z,35.35
2022-08-05T14:41:05.791Z,35.55
2022-08-05T14:44:02.718Z,35.59
2022-08-05T14:46:20.444Z,35.42
2022-08-05T14:48:49.909Z,35.45
2022-08-05T14:51:18.617Z,35.41
2022-08-05T14:54:00.570Z,35.36
2022-08-05T14:56:34.896Z,35.38
2022-08-05T14:59:04.950Z,35.38
2022-08-05T15:01:47.895Z,35.41
2022-08-05T15:04:16.230Z,35.34
2022-08-05T15:06:49.312Z,35.28
2022-08-05T15:09:52.587Z,35.39
2022-08-05T15:12:05.087Z,35.43
2022-08-05T15:14:35.034Z,35.40
2022-08-05T15:17:09.764Z,35.46
2022-08-05T15:19:55.787Z,35.46
2022-08-05T15:22:26.678Z,35.44
2022-08-05T15:24:54.925Z,35.41
2022-08-05T15:27:21.593Z,35.44
2022-08-05T15:29:52.155Z,35.30
2022-08-05T15:32:20.944Z,35.22
2022-08-05T15:34:54.290Z,35.10
2022-08-05T15:38:08.512Z,35.02
2022-08-05T15:41:00.568Z,35.15
2022-08-05T15:43:00.596Z,35.07
2022-08-05T15:45:36.476Z,34.95
2022-08-05T15:48:05.673Z,34.86
2022-08-05T15:50:33.956Z,34.61
2022-08-05T15:53:05.167Z,34.45
2022-08-05T15:56:03.498Z,34.36
2022-08-05T15:58:19.132Z,34.06
2022-08-05T16:00:50.854Z,33.84
2022-08-05T16:03:32.830Z,33.72
2022-08-05T16:06:01.136Z,33.55
2022-08-05T16:08:30.832Z,33.44
2022-08-05T16:10:58.187Z,33.34
2022-08-05T16:13:32.041Z,33.20
2022-08-05T16:16:01.965Z,33.11
2022-08-05T16:18:30.011Z,33.07
2022-08-05T16:20:56.606Z,32.97
2022-08-05T16:23:23.199Z,32.90
2022-08-05T16:25:49.942Z,32.85
2022-08-05T16:28:24.263Z,32.72
2022-08-05T16:30:52.380Z,32.67
2022-08-05T16:33:19.542Z,32.62
2022-08-05T16:35:49.939Z,32.59
2022-08-05T16:38:24.981Z,32.50
2022-08-05T16:41:00.439Z,32.47
2022-08-05T16:43:30.484Z,32.41
2022-08-05T16:46:04.094Z,32.39
2022-08-05T16:48:36.176Z,32.31
2022-08-05T16:51:08.798Z,32.25
2022-08-05T16:54:04.334Z,32.23
2022-08-05T16:56:27.708Z,32.17
2022-08-05T16:58:55.001Z,32.09
2022-08-05T17:01:21.938Z,32.07
2022-08-05T17:03:51.997Z,32.04
2022-08-05T17:06:19.382Z,31.99
2022-08-05T17:08:53.011Z,31.93
2022-08-05T17:11:25.136Z,31.89
2022-08-05T17:14:05.443Z,31.77
2022-08-05T17:16:36.462Z,31.80
2022-08-05T17:19:07.365Z,31.72
2022-08-05T17:21:36.903Z,31.66
2022-08-05T17:24:20.478Z,31.58
2022-08-05T17:26:57.922Z,31.52
2022-08-05T17:29:33.915Z,31.51
2022-08-05T17:32:17.410Z,31.40
2022-08-05T17:34:47.569Z,31.37
2022-08-05T17:37:40.648Z,31.36
2022-08-05T17:40:05.002Z,31.32
2022-08-05T17:42:41.471Z,31.28
2022-08-05T17:45:20.005Z,31.19
2022-08-05T17:47:53.032Z,31.15
2022-08-05T17:50:28.976Z,31.06
2022-08-05T17:53:02.154Z,31.04
2022-08-05T17:55:37.400Z,30.99
2022-08-05T17:58:12.533Z,30.87
2022-08-05T18:00:47.138Z,30.81
2022-08-05T18:06:11.356Z,30.74
2022-08-05T18:08:44.282Z,30.60
2022-08-05T18:11:23.772Z,30.60
2022-08-05T18:13:51.544Z,30.53
2022-08-05T18:16:20.619Z,30.54
2022-08-05T18:18:48.268Z,30.48
2022-08-05T18:21:21.105Z,30.43
2022-08-05T18:23:49.346Z,30.34
2022-08-05T18:26:20.939Z,30.20
2022-08-05T18:28:54.879Z,29.97
2022-08-05T18:31:23.638Z,29.42
2022-08-05T18:33:51.716Z,29.08
2022-08-05T18:36:19.190Z,28.46
2022-08-05T18:38:46.500Z,28.46
2022-08-05T18:41:55.277Z,29.19
2022-08-05T18:44:05.758Z,29.15
2022-08-05T18:46:34.577Z,29.58
2022-08-05T18:49:21.156Z,29.71
2022-08-05T18:52:08.592Z,29.64
2022-08-05T18:54:41.124Z,29.72
2022-08-05T18:57:15.183Z,29.68
2022-08-05T19:00:02.954Z,29.62
2022-08-05T19:02:29.030Z,29.53
2022-08-05T19:05:02.932Z,29.53
2022-08-05T19:07:48.178Z,29.44
2022-08-05T19:10:16.056Z,29.35
2022-08-05T19:12:43.944Z,29.28
2022-08-05T19:15:57.411Z,29.23
2022-08-05T19:18:10.278Z,29.10
2022-08-05T19:20:41.681Z,29.07
2022-08-05T19:24:03.774Z,29.04
2022-08-05T19:26:01.766Z,28.94
2022-08-05T19:28:29.990Z,28.89
2022-08-05T19:30:56.847Z,28.84
2022-08-05T19:33:35.642Z,28.72
2022-08-05T19:36:06.954Z,28.68
2022-08-05T19:38:36.896Z,28.59
2022-08-05T19:41:07.237Z,28.57
2022-08-05T19:44:06.134Z,28.46
2022-08-05T19:46:29.567Z,28.42
2022-08-05T19:48:57.494Z,28.37
2022-08-05T19:52:09.395Z,28.33
2022-08-05T19:54:21.865Z,28.24
2022-08-05T19:56:57.945Z,28.19
2022-08-05T20:00:00.265Z,28.12
2022-08-05T20:02:11.779Z,28.03
2022-08-05T20:04:38.336Z,28.03
2022-08-05T20:07:13.069Z,27.91
2022-08-05T20:09:54.888Z,27.83
2022-08-05T20:12:25.035Z,27.75
2022-08-05T20:14:53.243Z,27.69
2022-08-05T20:17:23.615Z,27.61
2022-08-05T20:19:56.924Z,27.60
2022-08-05T20:22:27.085Z,27.54
2022-08-05T20:24:55.749Z,27.46
2022-08-05T20:27:26.977Z,27.33
2022-08-05T20:29:58.524Z,27.42
2022-08-05T20:32:26.941Z,27.30
2022-08-05T20:34:54.095Z,27.21
2022-08-05T20:38:04.989Z,27.12
2022-08-05T20:40:08.405Z,27.10
2022-08-05T20:42:35.514Z,27.05
2022-08-05T20:45:02.634Z,26.88
2022-08-05T20:47:32.037Z,26.91
2022-08-05T20:49:59.774Z,26.91
2022-08-05T20:52:29.163Z,26.87
2022-08-05T20:55:55.551Z,26.83
2022-08-05T20:57:44.452Z,26.71
2022-08-05T21:00:20.857Z,26.71
2022-08-05T21:03:06.381Z,26.67
2022-08-05T21:05:53.925Z,26.67
2022-08-05T21:08:41.432Z,26.63
2022-08-05T21:11:11.830Z,26.63
2022-08-05T21:13:56.488Z,26.52
2022-08-05T21:16:30.013Z,26.42
2022-08-05T21:19:01.341Z,26.41
2022-08-05T21:21:43.776Z,26.35
2022-08-05T21:24:16.762Z,26.33
2022-08-05T21:26:53.660Z,26.34
2022-08-05T21:29:32.172Z,26.33
2022-08-05T21:32:02.577Z,26.32
2022-08-05T21:34:31.779Z,26.27
2022-08-05T21:37:00.244Z,26.26
2022-08-05T21:39:28.052Z,26.31
2022-08-05T21:42:01.274Z,26.27
2022-08-05T21:44:29.141Z,26.22
2022-08-05T21:46:58.170Z,26.19
2022-08-05T21:50:00.301Z,26.16
2022-08-05T21:52:22.218Z,26.13
2022-08-05T21:54:55.379Z,26.16
2022-08-05T21:57:37.670Z,26.02
2022-08-05T22:00:11.776Z,26.10
2022-08-05T22:02:38.969Z,26.09
2022-08-05T22:05:06.051Z,26.04
2022-08-05T22:07:54.168Z,26.08
2022-08-05T22:10:26.898Z,26.00
2022-08-05T22:12:57.472Z,25.87
2022-08-05T22:16:01.397Z,25.80
2022-08-05T22:18:11.316Z,25.50
2022-08-05T22:20:39.132Z,25.21
2022-08-05T22:23:25.305Z,25.27
2022-08-05T22:26:30.957Z,25.35
2022-08-05T22:28:57.581Z,25.08
2022-08-05T22:31:25.073Z,24.94
2022-08-05T22:34:01.162Z,25.09
2022-08-05T22:36:29.069Z,24.80
2022-08-05T22:38:56.249Z,24.90
2022-08-05T22:41:26.326Z,24.78
2022-08-05T22:44:12.044Z,24.71
2022-08-05T22:46:40.637Z,24.70
2022-08-05T22:49:23.110Z,24.62
2022-08-05T22:52:05.281Z,24.69
2022-08-05T22:54:33.566Z,24.61
2022-08-05T22:57:00.172Z,24.61
2022-08-05T22:59:46.516Z,24.46
2022-08-05T23:02:16.620Z,24.49
2022-08-05T23:04:43.917Z,24.50
2022-08-05T23:07:18.424Z,24.51
2022-08-05T23:09:57.854Z,24.34
2022-08-05T23:12:28.972Z,24.48
2022-08-05T23:14:59.246Z,24.37
2022-08-05T23:17:34.871Z,24.48
2022-08-05T23:20:10.527Z,24.65
2022-08-05T23:22:48.303Z,24.61
2022-08-05T23:25:52.671Z,24.53
2022-08-05T23:28:06.690Z,24.58
2022-08-05T23:30:40.489Z,24.43
2022-08-05T23:33:21.919Z,24.44
2022-08-05T23:35:52.200Z,24.37
2022-08-05T23:38:23.045Z,24.35
2022-08-05T23:40:52.717Z,24.41
2022-08-05T23:43:25.571Z,24.43
2022-08-05T23:46:20.315Z,24.36
2022-08-05T23:49:00.036Z,24.28
2022-08-05T23:51:55.047Z,24.33
2022-08-05T23:54:30.304Z,24.32
2022-08-05T23:57:03.485Z,24.31
